Time;durP1;ratioP1;P1;durP2;ratioP2;P2;SDS_P1;SDS_P2;PMS_P1;PMS_P2;Temp;Humidity;BMP_temperature;BMP_pressure;BME280_temperature;BME280_humidity;BME280_pressure;Samples;Min_cycle;Max_cycle;Signal;HPM_P1;HPM_P2
2022/04/01 00:00:03;;;;;;;2.30;0.80;;;;;;;3.10;53.77;100839.00;5033522;28;20609;-80
2022/04/01 00:02:37;;;;;;;2.47;0.90;;;;;;;3.04;53.55;100841.25;5029438;28;20265;-81
2022/04/01 00:05:03;;;;;;;2.37;1.10;;;;;;;3.07;53.66;100837.19;5014567;28;20186;-80
2022/04/01 00:07:29;;;;;;;2.93;0.93;;;;;;;3.07;53.74;100849.84;5033029;28;20197;-80
2022/04/01 00:09:54;;;;;;;1.70;0.93;;;;;;;3.08;53.69;100843.97;5008764;28;20725;-83
2022/04/01 00:12:20;;;;;;;4.37;1.50;;;;;;;3.08;53.72;100840.59;5013827;28;20194;-81
2022/04/01 00:14:45;;;;;;;1.93;1.07;;;;;;;3.09;53.61;100845.72;5013363;28;20210;-81
2022/04/01 00:17:10;;;;;;;3.63;1.07;;;;;;;3.06;53.54;100843.06;5016433;28;20227;-81
2022/04/01 00:19:36;;;;;;;2.33;1.00;;;;;;;3.09;52.45;100845.72;5022506;28;20584;-79
2022/04/01 00:22:02;;;;;;;2.43;1.30;;;;;;;3.00;53.41;100837.72;5014004;28;20248;-80
2022/04/01 00:24:27;;;;;;;3.53;1.67;;;;;;;3.01;54.31;100838.56;5032160;28;20280;-79
2022/04/01 00:26:52;;;;;;;3.57;1.30;;;;;;;3.05;53.97;100835.38;5021051;28;20205;-79
2022/04/01 00:29:20;;;;;;;1.27;0.80;;;;;;;3.04;53.81;100834.50;5037521;28;20205;-79
2022/04/01 00:31:48;;;;;;;2.97;1.60;;;;;;;3.06;53.33;100835.47;5055484;28;20193;-80
2022/04/01 00:34:15;;;;;;;3.20;1.90;;;;;;;3.04;54.09;100836.19;5002984;28;20651;-81
2022/04/01 00:36:42;;;;;;;2.30;1.30;;;;;;;3.08;54.15;100836.41;5018597;28;20187;-78
2022/04/01 00:39:08;;;;;;;2.70;1.70;;;;;;;3.03;54.59;100835.31;5035945;28;20243;-80
2022/04/01 00:41:37;;;;;;;4.47;1.00;;;;;;;3.02;54.07;100828.53;5037056;28;20193;-81
2022/04/01 00:44:32;;;;;;;3.10;1.90;;;;;;;3.01;54.26;100829.31;5017928;28;20240;-79
2022/04/01 00:47:04;;;;;;;1.83;1.50;;;;;;;3.00;53.99;100816.59;5025705;28;20292;-81
2022/04/01 00:49:31;;;;;;;2.13;1.23;;;;;;;2.99;54.39;100822.47;5054363;28;20214;-81
2022/04/01 00:52:01;;;;;;;2.93;1.60;;;;;;;2.95;54.54;100812.97;5031590;28;20679;-81
2022/04/01 00:54:27;;;;;;;4.13;1.97;;;;;;;2.94;54.46;100813.78;5018886;28;20186;-80
2022/04/01 00:57:07;;;;;;;1.80;1.30;;;;;;;2.90;54.12;100812.75;5026259;28;20782;-79
2022/04/01 00:59:33;;;;;;;3.20;1.63;;;;;;;2.93;54.60;100817.06;5023500;28;20317;-79
2022/04/01 01:01:59;;;;;;;2.90;1.77;;;;;;;2.92;54.63;100817.88;5035010;28;20269;-79
2022/04/01 01:04:26;;;;;;;3.33;1.80;;;;;;;2.90;54.93;100817.78;5000960;28;20730;-79
2022/04/01 01:06:54;;;;;;;2.73;1.13;;;;;;;2.89;53.82;100826.19;5031749;28;20296;-80
2022/04/01 01:09:22;;;;;;;3.83;2.00;;;;;;;2.92;54.46;100825.47;5035210;28;20279;-79
2022/04/01 01:11:51;;;;;;;8.17;3.20;;;;;;;2.89;54.59;100825.34;5054097;28;20328;-80
2022/04/01 01:14:24;;;;;;;4.50;2.10;;;;;;;2.92;55.44;100828.00;5035735;28;20185;-80
2022/04/01 01:16:50;;;;;;;4.00;1.53;;;;;;;2.96;54.31;100820.66;5036305;28;20225;-79
2022/04/01 01:19:17;;;;;;;4.33;1.53;;;;;;;2.91;54.82;100818.69;5034586;23;20225;-75
2022/04/01 01:21:45;;;;;;;4.00;1.43;;;;;;;2.94;54.38;100811.25;5022041;28;20218;-77
2022/04/01 01:24:14;;;;;;;3.90;2.40;;;;;;;2.93;55.23;100812.91;5011446;28;20186;-77
2022/04/01 01:26:44;;;;;;;3.87;1.90;;;;;;;2.92;54.58;100806.13;5011547;28;20668;-77
2022/04/01 01:29:10;;;;;;;3.70;1.33;;;;;;;2.90;55.09;100810.22;5010285;28;20187;-77
2022/04/01 01:31:35;;;;;;;2.67;1.40;;;;;;;2.89;55.17;100808.47;5031457;28;20271;-77
2022/04/01 01:34:01;;;;;;;4.53;2.03;;;;;;;2.88;54.18;100808.41;5016321;28;20187;-77
2022/04/01 01:36:29;;;;;;;4.10;2.13;;;;;;;2.90;54.45;100810.22;5011486;28;20520;-77
2022/04/01 01:38:54;;;;;;;2.97;1.70;;;;;;;2.90;54.38;100804.31;5006566;28;20186;-77
2022/04/01 01:41:20;;;;;;;4.30;2.13;;;;;;;2.89;55.19;100810.16;5031784;28;20186;-77
2022/04/01 01:43:46;;;;;;;3.97;1.90;;;;;;;2.87;55.42;100810.09;5003012;28;20191;-77
2022/04/01 01:46:12;;;;;;;2.20;1.40;;;;;;;2.92;55.12;100808.66;4993854;28;20206;-77
2022/04/01 01:48:37;;;;;;;4.30;1.63;;;;;;;2.89;55.44;100800.91;5009147;28;20772;-77
2022/04/01 01:56:31;;;;;;;4.63;3.10;;;;;;;2.91;54.34;100800.97;4993564;28;20267;-77
2022/04/01 01:59:01;;;;;;;5.33;2.93;;;;;;;2.91;54.40;100806.03;4993686;28;20272;-77
2022/04/01 02:01:26;;;;;;;11.77;6.93;;;;;;;2.93;54.84;100801.91;5010302;28;20183;-77
2022/04/01 02:03:53;;;;;;;4.57;2.60;;;;;;;2.90;53.97;100804.31;4989318;28;20194;-77
2022/04/01 02:06:21;;;;;;;5.30;3.50;;;;;;;2.85;54.58;100810.81;5011106;28;20187;-77
2022/04/01 02:08:51;;;;;;;12.83;7.43;;;;;;;2.85;55.06;100804.06;4993355;28;20599;-77
2022/04/01 02:11:26;;;;;;;7.23;4.00;;;;;;;2.87;54.76;100806.69;5009792;28;20191;-77
2022/04/01 02:13:52;;;;;;;2.43;1.40;;;;;;;2.89;54.26;100805.09;5002624;28;20186;-77
2022/04/01 02:16:18;;;;;;;8.90;4.93;;;;;;;2.85;54.56;100805.75;5012841;28;20213;-77
2022/04/01 02:18:44;;;;;;;4.43;2.70;;;;;;;2.83;55.64;100809.84;5013046;28;20210;-77
2022/04/01 02:21:11;;;;;;;4.33;1.80;;;;;;;2.83;55.04;100808.19;5039383;28;20187;-77
2022/04/01 02:23:47;;;;;;;5.87;2.20;;;;;;;2.79;55.36;100798.72;5012606;28;20231;-77
2022/04/01 02:26:16;;;;;;;2.53;1.67;;;;;;;2.79;55.17;100808.84;5010358;28;20677;-76
2022/04/01 02:28:42;;;;;;;4.70;1.50;;;;;;;2.79;55.08;100806.31;4992442;28;20230;-77
2022/04/01 02:31:14;;;;;;;3.67;2.30;;;;;;;2.78;54.85;100807.09;4993226;28;20183;-77
2022/04/01 02:33:59;;;;;;;1.70;1.40;;;;;;;2.78;54.99;100806.22;5010508;28;20547;-77
2022/04/01 02:36:24;;;;;;;2.60;1.30;;;;;;;2.77;55.26;100804.50;4992562;28;20314;-77
2022/04/01 02:38:50;;;;;;;2.80;1.53;;;;;;;2.74;55.27;100810.28;4992919;28;20278;-77
2022/04/01 02:41:17;;;;;;;1.93;1.27;;;;;;;2.73;55.04;100813.59;4992917;28;20191;-77
2022/04/01 02:43:42;;;;;;;2.80;1.50;;;;;;;2.71;55.53;100815.16;4992697;28;20214;-77
2022/04/01 02:46:10;;;;;;;3.93;1.27;;;;;;;2.72;55.57;100814.38;4993882;28;20205;-77
2022/04/01 02:48:43;;;;;;;3.10;1.27;;;;;;;2.68;55.93;100812.50;5001739;28;20257;-77
2022/04/01 02:51:27;;;;;;;5.50;1.03;;;;;;;2.67;55.07;100813.28;4999208;28;20205;-77
2022/04/01 02:54:04;;;;;;;3.23;1.03;;;;;;;2.68;54.98;100811.63;5006089;28;20304;-77
2022/04/01 02:56:31;;;;;;;2.70;1.10;;;;;;;2.62;55.43;100822.28;5029290;28;20202;-77
2022/04/01 02:58:56;;;;;;;4.20;1.30;;;;;;;2.66;55.66;100820.81;5031818;28;20741;-77
2022/04/01 03:01:22;;;;;;;1.40;1.00;;;;;;;2.65;55.49;100824.09;5031744;28;20193;-77
2022/04/01 03:03:48;;;;;;;2.70;1.10;;;;;;;2.63;55.70;100825.69;5021204;28;20186;-77
2022/04/01 03:06:16;;;;;;;2.93;1.43;;;;;;;2.65;55.34;100829.16;4978098;28;20254;-77
2022/04/01 03:08:43;;;;;;;3.77;1.20;;;;;;;2.63;55.52;100826.56;4992152;28;20277;-77
2022/04/01 03:11:09;;;;;;;3.17;1.30;;;;;;;2.63;54.42;100828.22;5008583;28;20681;-76
2022/04/01 03:13:35;;;;;;;2.80;1.30;;;;;;;2.60;55.68;100826.41;4992115;28;20198;-77
2022/04/01 03:16:24;;;;;;;3.97;1.40;;;;;;;2.62;55.51;100839.13;5012926;28;20704;-76
2022/04/01 03:18:57;;;;;;;2.60;1.80;;;;;;;2.60;55.11;100845.75;5027937;28;20273;-76
2022/04/01 03:21:24;;;;;;;6.77;1.83;;;;;;;2.58;54.83;100833.03;5011541;28;20733;-76
2022/04/01 03:23:50;;;;;;;3.93;1.80;;;;;;;2.58;55.94;100837.22;5011843;28;20610;-76
2022/04/01 03:26:17;;;;;;;2.07;1.63;;;;;;;2.61;55.80;100842.41;5011960;28;20182;-77
2022/04/01 03:29:02;;;;;;;5.03;1.70;;;;;;;2.58;55.38;100830.50;5011897;28;20181;-76
2022/04/01 03:31:28;;;;;;;3.90;1.80;;;;;;;2.60;54.95;100836.50;5028186;28;20186;-76
2022/04/01 03:33:56;;;;;;;3.13;1.70;;;;;;;2.58;55.65;100838.06;5011899;28;20178;-77
2022/04/01 03:36:23;;;;;;;3.07;1.57;;;;;;;2.57;55.25;100838.03;5028093;28;20202;-76
2022/04/01 03:38:50;;;;;;;3.57;1.30;;;;;;;2.55;54.87;100850.56;4992812;28;20210;-76
2022/04/01 03:41:23;;;;;;;3.33;1.40;;;;;;;2.53;55.36;100849.63;4992129;28;20187;-76
2022/04/01 03:43:52;;;;;;;4.43;1.83;;;;;;;2.52;55.96;100852.94;4992206;28;20201;-76
2022/04/01 03:46:20;;;;;;;2.83;1.80;;;;;;;2.57;55.25;100846.47;4992455;28;20193;-76
2022/04/01 03:48:55;;;;;;;3.27;1.60;;;;;;;2.54;55.50;100858.97;4991851;28;20233;-76
2022/04/01 03:51:24;;;;;;;3.70;1.83;;;;;;;2.53;55.30;100858.88;4993081;28;20222;-77
2022/04/01 03:53:55;;;;;;;4.27;1.67;;;;;;;2.56;55.61;100859.00;4999808;28;20190;-77
2022/04/01 03:56:28;;;;;;;3.00;1.53;;;;;;;2.56;55.87;100854.84;5026665;28;20206;-77
2022/04/01 03:59:12;;;;;;;4.77;2.07;;;;;;;2.53;55.36;100861.41;5014019;28;20186;-77
2022/04/01 04:01:56;;;;;;;4.23;2.10;;;;;;;2.51;55.19;100857.91;5013429;28;20888;-76
2022/04/01 04:04:22;;;;;;;5.03;1.97;;;;;;;2.51;55.37;100863.84;5029013;28;20286;-76
2022/04/01 04:06:47;;;;;;;4.63;1.70;;;;;;;2.53;55.88;100861.41;4995547;28;20209;-76
2022/04/01 04:09:16;;;;;;;2.67;1.83;;;;;;;2.54;55.89;100860.59;5028423;28;20187;-76
2022/04/01 04:11:44;;;;;;;3.10;1.80;;;;;;;2.46;56.54;100865.28;4995370;28;20215;-76
2022/04/01 04:14:27;;;;;;;3.57;1.90;;;;;;;2.48;57.10;100862.81;4981553;28;20179;-76
2022/04/01 04:16:56;;;;;;;4.83;1.70;;;;;;;2.49;56.62;100857.81;4995221;28;20214;-76
2022/04/01 04:19:38;;;;;;;5.13;2.23;;;;;;;2.51;57.26;100865.50;4995656;28;20199;-76
2022/04/01 04:22:13;;;;;;;3.60;1.90;;;;;;;2.50;56.83;100858.72;4995232;28;20210;-76
2022/04/01 04:24:53;;;;;;;2.63;1.87;;;;;;;2.50;57.10;100861.22;4995156;28;20187;-76
2022/04/01 04:27:25;;;;;;;3.33;1.80;;;;;;;2.49;56.74;100872.13;5027898;28;20601;-76
2022/04/01 04:29:52;;;;;;;5.17;1.90;;;;;;;2.46;57.28;100882.94;4994666;28;20214;-76
2022/04/01 04:32:55;;;;;;;5.20;2.17;;;;;;;2.48;56.93;100880.50;5022773;28;20369;-76
2022/04/01 04:35:25;;;;;;;3.47;1.90;;;;;;;2.49;56.63;100885.63;5014878;28;20528;-77
2022/04/01 04:37:55;;;;;;;6.33;1.70;;;;;;;2.46;56.72;100889.66;5014554;28;20221;-76
2022/04/01 04:40:21;;;;;;;4.50;2.17;;;;;;;2.48;56.93;100894.00;5014563;28;20289;-76
2022/04/01 04:42:54;;;;;;;3.47;2.17;;;;;;;2.46;57.26;100892.19;5031151;28;20234;-76
2022/04/01 04:45:21;;;;;;;4.37;2.40;;;;;;;2.45;57.05;100890.44;5014639;28;20773;-76
2022/04/01 04:47:51;;;;;;;4.17;1.90;;;;;;;2.43;57.79;100895.41;5030922;28;20650;-76
2022/04/01 04:50:18;;;;;;;4.77;1.97;;;;;;;2.45;58.25;100896.38;5014460;28;20228;-77
2022/04/01 04:52:48;;;;;;;6.63;2.30;;;;;;;2.47;57.82;100899.84;5014553;28;20713;-77
2022/04/01 04:55:17;;;;;;;3.47;2.07;;;;;;;2.47;58.07;100901.47;5031454;28;20187;-76
2022/04/01 04:57:52;;;;;;;3.97;2.10;;;;;;;2.45;58.54;100911.53;5015587;28;20209;-77
2022/04/01 05:00:19;;;;;;;7.30;2.30;;;;;;;2.45;58.50;100903.06;5014550;28;20822;-76
2022/04/01 05:03:28;;;;;;;4.87;2.17;;;;;;;2.48;59.83;100914.19;5014670;28;20709;-76
2022/04/01 05:05:56;;;;;;;4.13;1.93;;;;;;;2.48;60.33;100914.19;5021011;28;20292;-76
2022/04/01 05:08:40;;;;;;;4.23;2.40;;;;;;;2.49;59.06;100913.41;5032324;28;20739;-76
2022/04/01 05:12:03;;;;;;;4.10;2.47;;;;;;;2.50;60.23;100920.22;5013520;28;20197;-76
2022/04/01 05:15:04;;;;;;;5.33;2.10;;;;;;;2.53;61.03;100920.38;5019755;28;20263;-76
2022/04/01 05:17:52;;;;;;;4.10;2.23;;;;;;;2.54;60.91;100918.72;4994619;28;20198;-77
2022/04/01 05:20:24;;;;;;;6.87;2.50;;;;;;;2.56;60.25;100923.06;4978686;28;20761;-77
2022/04/01 05:22:54;;;;;;;3.67;2.53;;;;;;;2.54;60.27;100931.34;4994238;28;20349;-77
2022/04/01 05:25:24;;;;;;;4.40;2.27;;;;;;;2.56;60.75;100927.22;4994324;28;20214;-76
2022/04/01 05:27:53;;;;;;;5.67;2.40;;;;;;;2.57;61.74;100934.91;4994110;28;20187;-76
2022/04/01 05:30:25;;;;;;;5.00;2.47;;;;;;;2.57;60.88;100929.84;4978505;28;20179;-76
2022/04/01 05:33:00;;;;;;;4.13;2.10;;;;;;;2.58;61.37;100941.69;4994184;28;20221;-76
2022/04/01 05:35:29;;;;;;;5.07;2.47;;;;;;;2.61;62.17;100938.44;4994181;28;20528;-77
2022/04/01 05:37:56;;;;;;;6.13;3.03;;;;;;;2.63;61.96;100939.41;4993988;28;20217;-77
2022/04/01 05:40:22;;;;;;;4.63;2.67;;;;;;;2.64;61.42;100949.59;4994037;28;20640;-76
2022/04/01 05:42:50;;;;;;;6.97;2.43;;;;;;;2.69;61.76;100950.72;4993648;28;20222;-77
2022/04/01 05:45:34;;;;;;;5.60;2.57;;;;;;;2.71;62.18;100951.66;4996608;28;20186;-76
2022/04/01 05:48:01;;;;;;;3.97;2.73;;;;;;;2.71;62.24;100965.97;4993679;28;20197;-76
2022/04/01 05:50:28;;;;;;;6.17;3.50;;;;;;;2.70;61.87;100964.19;4977688;28;20183;-76
2022/04/01 05:52:54;;;;;;;5.33;3.50;;;;;;;2.73;61.75;100955.13;4977544;28;20230;-76
2022/04/01 05:55:22;;;;;;;7.27;3.20;;;;;;;2.75;61.88;100962.81;4993686;28;20261;-76
2022/04/01 05:57:48;;;;;;;4.50;3.10;;;;;;;2.78;62.12;100962.94;4977340;28;20622;-77
2022/04/01 06:00:14;;;;;;;5.97;3.13;;;;;;;2.83;61.62;100969.97;4993364;28;20195;-76
2022/04/01 06:03:17;;;;;;;6.60;3.03;;;;;;;2.88;61.34;100962.63;4993434;28;20203;-76
2022/04/01 06:06:28;;;;;;;7.67;2.83;;;;;;;2.92;61.59;100978.03;4993620;28;20171;-76
2022/04/01 06:09:04;;;;;;;5.13;2.80;;;;;;;2.93;61.63;100983.94;4966297;28;20206;-76
2022/04/01 06:12:36;;;;;;;6.20;2.53;;;;;;;2.97;62.10;100989.25;4998792;28;20823;-76
2022/04/01 06:15:39;;;;;;;5.63;3.07;;;;;;;3.02;62.37;100986.94;5002277;28;20225;-77
2022/04/01 06:18:44;;;;;;;6.60;3.10;;;;;;;3.08;61.61;100993.19;5010469;28;20277;-76
2022/04/01 06:21:15;;;;;;;4.33;2.57;;;;;;;3.07;62.40;101000.69;5021377;28;20238;-76
2022/04/01 06:24:11;;;;;;;7.33;2.90;;;;;;;3.09;62.24;101002.50;5014542;28;20218;-76
2022/04/01 06:26:56;;;;;;;4.43;2.67;;;;;;;3.58;65.51;100996.59;4993465;28;20555;-74
2022/04/01 06:29:34;;;;;;;5.40;2.63;;;;;;;3.71;62.09;101004.00;5018684;28;20851;-74
2022/04/01 06:32:20;;;;;;;5.27;2.73;;;;;;;3.59;59.77;101005.91;5035847;28;20209;-77
2022/04/01 06:35:03;;;;;;;5.53;2.97;;;;;;;3.50;60.43;101008.00;5016652;28;20175;-77
2022/04/01 06:38:02;;;;;;;6.77;3.27;;;;;;;3.50;61.78;101010.53;5025460;28;20653;-77
2022/04/01 06:41:05;;;;;;;5.33;3.10;;;;;;;3.51;61.44;101013.94;5031478;28;20304;-77
2022/04/01 06:43:38;;;;;;;4.20;2.70;;;;;;;3.61;61.03;101013.59;4995269;28;20214;-77
2022/04/01 06:46:22;;;;;;;6.00;2.43;;;;;;;3.58;60.50;101021.91;5014706;28;20190;-78
2022/04/01 06:48:52;;;;;;;5.40;2.90;;;;;;;3.66;60.70;101019.75;4994486;28;20234;-79
2022/04/01 06:51:39;;;;;;;5.17;2.60;;;;;;;3.63;60.64;101025.53;4951440;28;20222;-77
2022/04/01 06:54:22;;;;;;;3.57;2.40;;;;;;;3.72;60.30;101031.06;4997148;28;20218;-77
2022/04/01 06:57:06;;;;;;;4.10;2.60;;;;;;;3.76;60.07;101029.53;5011644;28;20240;-77
2022/04/01 06:59:52;;;;;;;6.27;2.60;;;;;;;3.82;60.31;101027.31;4997982;28;20663;-77
2022/04/01 07:02:18;;;;;;;5.00;3.07;;;;;;;3.84;59.73;101034.19;5014845;28;20217;-78
2022/04/01 07:04:43;;;;;;;4.97;2.57;;;;;;;3.92;59.50;101040.47;4979537;28;20195;-78
2022/04/01 07:07:09;;;;;;;7.57;2.90;;;;;;;3.96;59.28;101041.53;4994139;28;20183;-77
2022/04/01 07:09:37;;;;;;;4.03;2.53;;;;;;;4.07;59.48;101050.50;5011385;28;20191;-77
2022/04/01 07:12:03;;;;;;;6.13;2.73;;;;;;;4.10;59.43;101041.38;5009558;28;20218;-77
2022/04/01 07:14:28;;;;;;;6.97;2.90;;;;;;;4.22;58.69;101049.56;5012270;28;20183;-77
2022/04/01 07:16:57;;;;;;;8.73;2.50;;;;;;;4.31;58.79;101059.25;5013025;28;20695;-77
2022/04/01 07:19:23;;;;;;;8.97;2.60;;;;;;;4.24;58.70;101050.50;5011686;28;20289;-76
2022/04/01 07:21:48;;;;;;;5.83;2.60;;;;;;;4.26;57.59;101045.50;4995517;28;20285;-76
2022/04/01 07:24:14;;;;;;;4.03;2.30;;;;;;;4.31;58.29;101047.47;5001113;28;20281;-76
2022/04/01 07:26:40;;;;;;;6.77;2.63;;;;;;;4.33;58.58;101058.53;5030295;28;20232;-76
2022/04/01 07:29:06;;;;;;;4.87;2.40;;;;;;;4.29;57.70;101061.75;4998406;28;20247;-76
2022/04/01 07:34:25;;;;;;;4.27;2.80;;;;;;;4.53;58.12;101060.34;5043691;28;20202;-78
2022/04/01 07:36:50;;;;;;;7.70;3.00;;;;;;;4.57;58.97;101061.34;5020908;28;20214;-76
2022/04/01 07:39:16;;;;;;;8.60;3.13;;;;;;;4.65;57.75;101055.81;5004550;28;20255;-77
2022/04/01 07:41:41;;;;;;;5.03;2.73;;;;;;;4.77;57.85;101066.53;5035424;28;20210;-76
2022/04/01 07:44:07;;;;;;;6.20;2.40;;;;;;;4.80;57.00;101064.16;5028434;28;20198;-77
2022/04/01 07:46:33;;;;;;;6.60;2.70;;;;;;;4.83;57.00;101069.34;5011351;28;20205;-77
2022/04/01 07:48:59;;;;;;;5.97;2.70;;;;;;;4.97;57.02;101068.31;5032944;28;20189;-77
2022/04/01 07:51:24;;;;;;;5.33;3.17;;;;;;;5.12;57.25;101065.59;5053253;28;20185;-77
2022/04/01 07:53:50;;;;;;;7.03;2.57;;;;;;;5.00;56.25;101068.44;5053905;28;20690;-77
2022/04/01 07:56:15;;;;;;;5.07;2.57;;;;;;;5.00;55.77;101070.09;5058352;28;20198;-78
2022/04/01 07:58:41;;;;;;;4.03;2.20;;;;;;;5.17;55.14;101062.47;5036022;28;20670;-77
2022/04/01 08:01:07;;;;;;;3.30;2.60;;;;;;;5.20;55.18;101071.88;5040024;28;20646;-76
2022/04/01 08:03:33;;;;;;;5.93;2.60;;;;;;;5.18;54.74;101061.66;5035052;28;20204;-76
2022/04/01 08:05:59;;;;;;;5.23;2.47;;;;;;;5.45;55.16;101072.13;5039038;28;20200;-77
2022/04/01 08:08:24;;;;;;;21.03;9.93;;;;;;;5.60;55.03;101063.50;5052893;28;20182;-78
2022/04/01 08:10:51;;;;;;;4.80;2.43;;;;;;;5.76;54.32;101070.94;5053883;28;20184;-76
2022/04/01 08:13:17;;;;;;;5.60;2.70;;;;;;;5.59;53.01;101071.94;5036977;28;20630;-76
2022/04/01 08:15:42;;;;;;;8.93;4.80;;;;;;;5.78;53.88;101076.09;5053219;28;20189;-77
2022/04/01 08:18:08;;;;;;;5.13;2.63;;;;;;;5.80;52.11;101083.00;5034735;28;20575;-77
2022/04/01 08:20:34;;;;;;;6.03;3.17;;;;;;;6.03;52.46;101082.28;5053493;28;20201;-77
2022/04/01 08:23:02;;;;;;;4.67;2.50;;;;;;;6.12;51.27;101079.28;5036159;28;20270;-77
2022/04/01 08:25:27;;;;;;;4.90;2.40;;;;;;;6.14;51.79;101077.66;5037354;28;20185;-77
2022/04/01 08:27:53;;;;;;;4.93;2.63;;;;;;;6.28;51.54;101079.06;5055410;28;20570;-77
2022/04/01 08:30:18;;;;;;;4.57;2.60;;;;;;;6.32;50.69;101073.31;5037861;28;20192;-77
2022/04/01 08:32:44;;;;;;;4.23;2.50;;;;;;;6.81;50.33;101061.69;5044243;28;20248;-77
2022/04/01 08:35:10;;;;;;;3.60;2.80;;;;;;;6.74;50.21;101082.59;5034702;28;20205;-77
2022/04/01 08:37:35;;;;;;;7.33;2.50;;;;;;;6.99;48.61;101075.06;5052142;28;20292;-77
2022/04/01 08:40:01;;;;;;;8.17;3.20;;;;;;;7.23;48.71;101076.84;5052258;28;20205;-77
2022/04/01 08:42:27;;;;;;;8.10;3.70;;;;;;;7.57;52.93;101074.69;5052535;28;20210;-75
2022/04/01 08:44:53;;;;;;;4.30;2.60;;;;;;;7.72;50.20;101084.53;5050312;28;20190;-74
2022/04/01 08:47:18;;;;;;;5.97;2.20;;;;;;;7.58;47.21;101086.59;5033707;28;20177;-78
2022/04/01 08:49:44;;;;;;;5.30;2.60;;;;;;;7.47;47.61;101085.34;4984252;28;20187;-79
2022/04/01 08:52:09;;;;;;;5.27;2.40;;;;;;;7.36;47.35;101096.84;5007882;28;20699;-79
2022/04/01 08:54:35;;;;;;;3.80;2.43;;;;;;;7.28;47.29;101102.47;4997976;28;20197;-78
2022/04/01 08:57:01;;;;;;;4.83;2.50;;;;;;;7.15;47.29;101106.25;4996320;28;20733;-79
2022/04/01 08:59:31;;;;;;;3.90;2.40;;;;;;;7.01;47.18;101114.19;4995885;28;20191;-77
2022/04/01 09:02:06;;;;;;;5.37;2.53;;;;;;;6.87;48.37;101111.09;5012959;28;20624;-77
2022/04/01 09:04:31;;;;;;;7.37;3.10;;;;;;;7.02;47.69;101115.91;5013183;28;20193;-78
2022/04/01 09:07:09;;;;;;;5.10;3.17;;;;;;;7.05;48.20;101106.72;4996797;28;20183;-78
2022/04/01 09:09:34;;;;;;;7.60;4.40;;;;;;;7.20;48.26;101122.59;5002818;28;20193;-78
2022/04/01 09:12:16;;;;;;;8.43;3.87;;;;;;;6.93;48.83;101118.13;4995553;28;20579;-78
2022/04/01 09:14:54;;;;;;;5.80;2.50;;;;;;;6.68;49.79;101125.63;4994475;28;20182;-76
2022/04/01 09:17:19;;;;;;;5.03;2.30;;;;;;;6.69;49.46;101125.69;5011842;28;20217;-77
2022/04/01 09:19:46;;;;;;;3.97;2.17;;;;;;;6.77;49.44;101120.91;4994211;28;20570;-77
2022/04/01 09:22:15;;;;;;;5.23;2.60;;;;;;;6.56;48.84;101126.00;5017457;28;20213;-77
2022/04/01 09:24:53;;;;;;;3.57;2.57;;;;;;;6.53;49.15;101130.09;5051158;28;20668;-77
2022/04/01 09:27:18;;;;;;;6.07;2.50;;;;;;;6.68;48.48;101113.75;5034648;28;20223;-77
2022/04/01 09:29:43;;;;;;;3.93;2.70;;;;;;;6.83;48.36;101116.91;5047071;28;20190;-77
2022/04/01 09:32:09;;;;;;;6.23;3.03;;;;;;;6.82;48.54;101116.84;5012722;28;20288;-76
2022/04/01 09:34:37;;;;;;;4.00;2.30;;;;;;;7.11;48.39;101124.78;5012277;28;20589;-77
2022/04/01 09:37:02;;;;;;;3.33;2.27;;;;;;;7.18;48.96;101120.78;5024846;28;20239;-76
2022/04/01 09:39:28;;;;;;;4.60;2.30;;;;;;;6.96;47.63;101125.88;4993617;28;20632;-77
2022/04/01 09:41:55;;;;;;;4.63;2.27;;;;;;;6.84;48.23;101120.31;5011649;28;20205;-76
2022/04/01 09:44:34;;;;;;;3.93;2.10;;;;;;;7.25;47.49;101121.06;4994207;28;20191;-76
2022/04/01 09:47:03;;;;;;;4.20;2.77;;;;;;;7.05;47.73;101128.78;5011643;28;20163;-76
2022/04/01 09:49:44;;;;;;;4.40;2.83;;;;;;;6.90;48.30;101121.41;5011046;28;20186;-76
2022/04/01 09:52:13;;;;;;;5.40;2.63;;;;;;;6.95;48.01;101119.91;5011155;28;20207;-76
2022/04/01 09:54:50;;;;;;;4.30;2.33;;;;;;;7.03;46.64;101121.06;5010361;28;20253;-76
2022/04/01 09:57:18;;;;;;;10.20;5.57;;;;;;;7.81;45.12;101117.97;5010871;28;20202;-76
2022/04/01 09:59:45;;;;;;;6.90;2.67;;;;;;;7.43;46.07;101109.00;5011110;28;20191;-76
2022/04/01 10:02:10;;;;;;;7.17;2.40;;;;;;;7.24;45.91;101119.31;5010757;28;20624;-76
2022/04/01 10:04:36;;;;;;;7.90;3.67;;;;;;;7.17;46.94;101119.91;5010691;28;20187;-76
2022/04/01 10:07:02;;;;;;;3.53;2.40;;;;;;;7.14;47.03;101116.38;4993194;28;20678;-76
2022/04/01 10:09:29;;;;;;;3.10;1.90;;;;;;;7.47;46.32;101125.25;5010628;28;20746;-76
2022/04/01 10:11:59;;;;;;;13.60;6.13;;;;;;;7.25;46.85;101117.63;4977283;28;20295;-76
2022/04/01 10:14:28;;;;;;;3.37;2.43;;;;;;;7.19;46.51;101118.28;4993356;28;20187;-75
2022/04/01 10:16:55;;;;;;;9.20;3.63;;;;;;;7.14;45.83;101132.50;4976974;28;20199;-77
2022/04/01 10:19:32;;;;;;;13.53;5.67;;;;;;;7.31;46.11;101123.81;4992827;28;20719;-77
2022/04/01 10:21:59;;;;;;;11.20;5.17;;;;;;;7.42;46.45;101126.78;5010716;28;20281;-77
2022/04/01 10:24:36;;;;;;;4.03;2.57;;;;;;;7.21;45.94;101128.53;5010471;28;20198;-76
2022/04/01 10:27:04;;;;;;;10.97;6.10;;;;;;;7.25;45.38;101117.63;5010635;28;20194;-76
2022/04/01 10:29:31;;;;;;;17.37;7.30;;;;;;;7.33;45.68;101117.09;4992840;28;20528;-75
2022/04/01 10:32:21;;;;;;;4.77;2.60;;;;;;;7.35;44.91;101119.72;5010600;28;20257;-76
2022/04/01 10:34:47;;;;;;;7.90;3.43;;;;;;;7.52;46.33;101119.53;5010728;28;20241;-76
2022/04/01 10:37:14;;;;;;;8.10;3.30;;;;;;;7.77;46.59;101122.09;5010366;28;20812;-76
2022/04/01 10:40:17;;;;;;;3.80;2.33;;;;;;;7.55;44.60;101129.81;5010297;28;20219;-76
2022/04/01 10:42:43;;;;;;;7.30;3.50;;;;;;;7.52;45.25;101129.72;5000744;28;20269;-77
2022/04/01 10:45:29;;;;;;;10.17;5.37;;;;;;;7.56;45.21;101128.97;5030146;28;20190;-76
2022/04/01 10:53:37;;;;;;;4.60;2.80;;;;;;;7.38;45.56;101135.97;5030213;28;20202;-76
2022/04/01 10:56:23;;;;;;;5.27;3.13;;;;;;;7.81;46.26;101134.16;5012026;28;20202;-77
2022/04/01 10:59:05;;;;;;;5.80;2.23;;;;;;;7.90;44.27;101126.81;5024893;28;20223;-77
2022/04/01 11:01:32;;;;;;;4.83;2.63;;;;;;;8.48;42.63;101125.41;5009937;28;20183;-77
2022/04/01 11:04:10;;;;;;;5.53;2.47;;;;;;;8.36;42.06;101129.25;5009800;28;20245;-77
2022/04/01 11:06:57;;;;;;;3.27;2.17;;;;;;;8.33;41.58;101132.56;5008062;28;20187;-77
2022/04/01 11:09:41;;;;;;;3.40;2.27;;;;;;;8.16;42.71;101128.53;4992007;28;20195;-76
2022/04/01 11:12:16;;;;;;;4.90;2.47;;;;;;;8.10;42.82;101141.09;4992272;28;20212;-77
2022/04/01 11:14:53;;;;;;;5.27;2.37;;;;;;;8.13;43.25;101128.47;5009730;28;20186;-76
2022/04/01 11:17:22;;;;;;;3.80;2.13;;;;;;;9.14;43.77;101119.81;4991878;28;20218;-77
2022/04/01 11:20:05;;;;;;;2.43;2.10;;;;;;;9.75;41.03;101123.28;4991997;28;20226;-77
2022/04/01 11:22:39;;;;;;;3.43;1.97;;;;;;;9.40;41.20;101121.41;5009744;28;20199;-77
2022/04/01 11:25:06;;;;;;;3.60;2.33;;;;;;;8.92;42.00;101119.13;4992339;28;20183;-76
2022/04/01 11:27:33;;;;;;;5.53;2.30;;;;;;;8.64;41.90;101124.19;5009739;28;20183;-77
2022/04/01 11:30:08;;;;;;;6.27;3.30;;;;;;;8.44;42.31;101112.50;5008697;28;20171;-76
2022/04/01 11:32:38;;;;;;;4.50;2.70;;;;;;;8.39;42.12;101119.16;4992230;28;20269;-76
2022/04/01 11:35:05;;;;;;;5.90;3.50;;;;;;;8.39;43.15;101116.59;5009706;28;20687;-77
2022/04/01 11:37:39;;;;;;;13.53;6.93;;;;;;;8.29;43.24;101117.13;4991803;28;20203;-77
2022/04/01 11:40:11;;;;;;;8.13;4.50;;;;;;;8.38;41.67;101112.31;5009498;28;20186;-76
2022/04/01 11:43:02;;;;;;;9.43;3.07;;;;;;;8.31;41.44;101129.09;5009565;28;20199;-75
2022/04/01 11:45:29;;;;;;;10.40;4.67;;;;;;;8.59;41.59;101120.63;5009578;28;20263;-77
2022/04/01 11:47:55;;;;;;;9.13;4.77;;;;;;;8.74;41.91;101129.66;5009364;28;20560;-77
2022/04/01 11:50:22;;;;;;;17.80;7.80;;;;;;;8.68;41.99;101119.25;4992165;28;20175;-77
2022/04/01 11:52:49;;;;;;;7.30;3.60;;;;;;;8.85;42.63;101132.53;5009443;28;20207;-77
2022/04/01 11:55:20;;;;;;;7.83;4.17;;;;;;;8.14;43.06;101136.97;5008049;28;20183;-76
2022/04/01 11:57:47;;;;;;;3.80;2.23;;;;;;;7.99;43.57;101129.69;5009163;28;20239;-77
2022/04/01 12:00:14;;;;;;;4.10;2.20;;;;;;;7.94;45.35;101126.13;4995226;28;20184;-77
2022/04/01 12:02:41;;;;;;;9.93;4.47;;;;;;;7.70;45.54;101124.38;5012406;28;20254;-77
2022/04/01 12:05:08;;;;;;;7.53;3.60;;;;;;;7.78;46.26;101128.94;5008488;28;20497;-77
2022/04/01 12:10:20;;;;;;;12.93;4.60;;;;;;;7.49;47.10;101121.94;5009091;28;20633;-77